Port Tobacco, Maryland
Current Conditions -  °F | °C
As of 11:56 PM on Friday 28 Nov 2014 (Local Time) from KNYG Reporting Station
Clear Clear  
Wind Chill: 21°   Ceiling: Unl
Heat Index: 28°   Visibility: 10mi
Dew Point: 23°   Wind: 7mph
Humidity: 81%   Direction: 310°NW
Pressure: 30.33"   Gusts: NA
Location:  38.51°N, 77.04°W
Report Text: KNYG 290456Z AUTO 31006KT 10SM CLR M02/M05 A3033 RMK AO2 SLP271 T10221050 400501022 FZRANO $
Loading
Personal Weather Stations






























Interactive Weather Map New forecast layout! Learn more

10-Day Weather Forecast

Advertisements
Track Severe Weather on mobile